Time;durP1;ratioP1;P1;durP2;ratioP2;P2;SDS_P1;SDS_P2;PMS_P1;PMS_P2;Temp;Humidity;BMP_temperature;BMP_pressure;BME280_temperature;BME280_humidity;BME280_pressure;Samples;Min_cycle;Max_cycle;Signal;HPM_P1;HPM_P2
2022/12/17 13:06:33;;;;;;;0.20;0.20;;;;;;;2.14;68.25;102693.50;5071842;28;20063;-80
2022/12/17 13:14:53;;;;;;;2.38;1.48;;;;;;;2.17;68.86;102686.69;5094808;27;20392;-80
2022/12/17 13:23:25;;;;;;;0.20;0.20;;;;;;;2.25;68.43;102680.06;5060937;27;1204917;-80
2022/12/17 13:26:23;;;;;;;0.30;0.30;;;;;;;2.31;68.71;102671.59;5109415;28;20092;-80
2022/12/17 13:29:00;;;;;;;0.20;0.20;;;;;;;2.30;68.55;102668.94;5099555;28;20602;-78
2022/12/17 13:31:29;;;;;;;1.40;0.57;;;;;;;2.20;68.09;102663.28;5090444;28;20515;-81
2022/12/17 13:36:59;;;;;;;0.33;0.33;;;;;;;2.24;67.93;102664.31;5104328;27;1191841;-83
2022/12/17 13:39:39;;;;;;;0.40;0.40;;;;;;;2.29;68.27;102667.13;5127195;28;20304;-81
2022/12/17 13:42:14;;;;;;;0.60;0.60;;;;;;;2.27;68.36;102669.69;5122126;28;20030;-80
2022/12/17 13:44:45;;;;;;;0.85;0.85;;;;;;;2.26;68.22;102663.53;5114596;28;20020;-79
2022/12/17 13:47:23;;;;;;;0.40;0.40;;;;;;;2.25;68.21;102666.97;5111990;28;20031;-77
2022/12/17 13:49:55;;;;;;;0.80;0.77;;;;;;;2.15;68.06;102666.53;5107062;28;20039;-78
2022/12/17 13:52:25;;;;;;;1.25;1.25;;;;;;;2.04;68.24;102672.16;5103234;28;20038;-78
2022/12/17 13:54:52;;;;;;;0.50;0.50;;;;;;;1.90;68.28;102663.69;5106842;28;20035;-78
2022/12/17 13:59:56;;;;;;;0.67;0.67;;;;;;;1.89;68.56;102671.47;5112698;27;1162841;-79
2022/12/17 14:02:41;;;;;;;0.10;0.10;;;;;;;1.89;68.66;102671.47;5124855;27;20286;-81
2022/12/17 14:08:02;;;;;;;0.20;0.20;;;;;;;1.86;68.60;102677.47;5119066;27;20380;-79
2022/12/17 14:10:28;;;;;;;0.30;0.30;;;;;;;1.81;68.59;102681.59;5095736;28;20068;-79
2022/12/17 14:13:14;;;;;;;0.70;0.70;;;;;;;1.77;68.40;102680.56;5095243;28;20091;-80
2022/12/17 14:15:47;;;;;;;2.08;1.05;;;;;;;1.70;68.56;102685.44;5095920;28;20024;-82
2022/12/17 14:18:17;;;;;;;0.20;0.20;;;;;;;1.64;68.67;102685.16;5104283;28;20020;-81
2022/12/17 14:20:44;;;;;;;0.30;0.30;;;;;;;1.56;68.92;102685.69;5090179;28;20032;-79
2022/12/17 14:23:25;;;;;;;3.17;2.88;;;;;;;1.56;69.00;102690.91;5096823;28;20054;-79
2022/12/17 14:25:51;;;;;;;1.15;1.15;;;;;;;1.49;69.06;102690.56;5092354;28;20044;-81
2022/12/17 14:33:41;;;;;;;0.93;0.93;;;;;;;1.39;69.25;102704.91;5146886;27;1197136;-79
2022/12/17 14:39:09;;;;;;;0.20;0.20;;;;;;;1.36;69.64;102710.88;5027386;28;20406;-80
2022/12/17 14:44:27;;;;;;;0.20;0.20;;;;;;;1.33;69.88;102705.47;5017203;28;20027;-80
2022/12/17 14:47:17;;;;;;;1.52;1.42;;;;;;;1.37;69.59;102703.91;5023284;28;20037;-80
2022/12/17 14:50:06;;;;;;;0.38;0.38;;;;;;;1.33;69.79;102709.81;5025724;28;20157;-80
2022/12/17 14:55:29;;;;;;;5.28;1.38;;;;;;;1.25;69.66;102712.94;5076329;28;20131;-81
2022/12/17 14:58:17;;;;;;;0.20;0.20;;;;;;;1.23;69.80;102717.19;5054989;28;20132;-79
2022/12/17 15:00:48;;;;;;;0.20;0.20;;;;;;;1.18;69.98;102713.47;5041047;28;20040;-78
2022/12/17 15:03:39;;;;;;;1.75;1.65;;;;;;;1.19;69.94;102712.66;5024369;28;20044;-78
2022/12/17 15:06:08;;;;;;;0.30;0.30;;;;;;;1.08;70.29;102719.06;5008421;28;20045;-78
2022/12/17 15:08:39;;;;;;;0.22;0.22;;;;;;;1.12;70.41;102718.38;5038182;28;20033;-79
2022/12/17 15:11:22;;;;;;;0.20;0.20;;;;;;;1.06;70.29;102720.69;5013505;28;20522;-78
2022/12/17 15:14:08;;;;;;;0.20;0.20;;;;;;;1.03;70.67;102725.78;4930391;28;20351;-78
2022/12/17 15:16:51;;;;;;;1.70;1.60;;;;;;;1.11;70.48;102729.69;4940030;28;20466;-78
2022/12/17 15:19:24;;;;;;;;;;;;;;;1.15;70.02;102731.59;4941473;28;20420;-83
2022/12/17 15:22:04;;;;;;;0.20;0.20;;;;;;;1.07;70.75;102732.94;4947503;28;20692;-79
2022/12/17 15:24:33;;;;;;;0.95;0.95;;;;;;;1.01;70.46;102733.53;4930190;28;20132;-78
2022/12/17 15:27:06;;;;;;;0.10;0.10;;;;;;;1.01;70.59;102738.75;4963118;28;20589;-78
2022/12/17 15:29:38;;;;;;;0.22;0.22;;;;;;;0.96;70.65;102745.47;4955947;28;20343;-77
2022/12/17 15:32:25;;;;;;;0.30;0.30;;;;;;;0.95;70.58;102754.13;4940367;28;20287;-77
2022/12/17 15:34:57;;;;;;;3.90;1.27;;;;;;;0.96;70.66;102751.56;4943863;28;20315;-78
2022/12/17 15:37:30;;;;;;;0.20;0.20;;;;;;;0.89;70.54;102749.47;4932914;28;20291;-77
2022/12/17 15:40:02;;;;;;;4.47;1.55;;;;;;;0.90;70.62;102758.22;4941335;28;20346;-78
2022/12/17 15:45:17;;;;;;;1.05;1.05;;;;;;;0.81;70.60;102761.25;4941320;28;20351;-78
2022/12/17 15:47:48;;;;;;;1.63;1.58;;;;;;;0.85;70.63;102767.50;4927729;28;20343;-78
2022/12/17 15:50:20;;;;;;;0.68;0.68;;;;;;;0.87;70.73;102766.75;4940818;28;20571;-78
2022/12/17 15:52:46;;;;;;;2.08;1.98;;;;;;;0.91;70.66;102763.50;4934463;28;20705;-79
2022/12/17 15:55:15;;;;;;;0.20;0.20;;;;;;;0.89;70.64;102765.13;4950625;28;20473;-79
2022/12/17 15:57:47;;;;;;;0.55;0.55;;;;;;;0.79;70.70;102768.97;4948391;28;20450;-79
2022/12/17 16:00:17;;;;;;;3.00;2.83;;;;;;;0.87;70.38;102778.91;4968024;28;20350;-79
2022/12/17 16:02:44;;;;;;;1.15;1.08;;;;;;;0.80;70.77;102773.38;4951572;28;20679;-78
2022/12/17 16:05:12;;;;;;;0.20;0.20;;;;;;;0.76;70.90;102773.13;4942080;28;20528;-77
2022/12/17 16:07:51;;;;;;;0.65;0.65;;;;;;;0.79;70.48;102778.53;4927279;28;20804;-77
2022/12/17 16:10:30;;;;;;;0.20;0.20;;;;;;;0.84;71.06;102784.88;4930381;28;20311;-80
2022/12/17 16:12:57;;;;;;;0.40;0.40;;;;;;;0.79;70.90;102783.75;4933408;28;20808;-78
2022/12/17 16:15:23;;;;;;;0.20;0.20;;;;;;;0.82;70.87;102783.91;4933858;28;20493;-79
2022/12/17 16:17:50;;;;;;;0.20;0.20;;;;;;;0.70;71.29;102784.16;4935788;28;20312;-78
2022/12/17 16:20:27;;;;;;;1.48;1.45;;;;;;;0.63;71.83;102782.94;4933553;28;20496;-77
2022/12/17 16:22:59;;;;;;;0.20;0.20;;;;;;;0.62;71.43;102775.97;4931399;28;20398;-77
2022/12/17 16:25:30;;;;;;;0.70;0.68;;;;;;;0.62;72.09;102780.25;4934019;28;20354;-80
2022/12/17 16:27:58;;;;;;;2.33;2.22;;;;;;;0.60;71.84;102774.97;4913117;28;20793;-78
2022/12/17 16:30:43;;;;;;;0.50;0.50;;;;;;;0.62;72.28;102780.25;4915622;28;20503;-78
2022/12/17 16:33:39;;;;;;;0.20;0.20;;;;;;;0.69;71.77;102765.84;4912765;28;20437;-78
2022/12/17 16:36:12;;;;;;;0.93;0.93;;;;;;;0.64;71.95;102774.28;4932076;28;20374;-78
2022/12/17 16:38:45;;;;;;;0.20;0.20;;;;;;;0.65;72.22;102785.66;4939683;28;20324;-78
2022/12/17 16:41:12;;;;;;;0.57;0.57;;;;;;;0.66;71.87;102778.72;4936446;28;20541;-78
2022/12/17 16:43:43;;;;;;;0.20;0.20;;;;;;;0.66;72.15;102781.31;4936953;28;20393;-78
2022/12/17 16:46:32;;;;;;;0.25;0.25;;;;;;;0.66;72.38;102782.22;4922432;28;20431;-79
2022/12/17 16:49:04;;;;;;;6.50;3.40;;;;;;;0.56;72.08;102778.25;4969990;28;20132;-80
2022/12/17 16:51:30;;;;;;;1.23;1.23;;;;;;;0.62;71.86;102781.16;4982145;28;20320;-78
2022/12/17 16:53:57;;;;;;;0.60;0.60;;;;;;;0.64;71.94;102776.91;4998173;28;20052;-79
2022/12/17 16:56:26;;;;;;;0.20;0.20;;;;;;;0.65;72.35;102777.81;4999805;28;20857;-79
2022/12/17 16:58:54;;;;;;;0.57;0.57;;;;;;;0.56;71.80;102780.84;4999221;28;20037;-81
2022/12/17 17:01:23;;;;;;;0.20;0.20;;;;;;;0.61;71.90;102778.47;5000304;28;20215;-82
2022/12/17 17:03:50;;;;;;;0.20;0.20;;;;;;;0.55;71.61;102772.91;4997893;28;20148;-81
2022/12/17 17:06:17;;;;;;;0.63;0.63;;;;;;;0.55;71.95;102778.13;5003515;28;20841;-81
2022/12/17 17:08:43;;;;;;;0.20;0.20;;;;;;;0.51;71.89;102786.63;5008987;28;20572;-81
2022/12/17 17:11:25;;;;;;;0.40;0.40;;;;;;;0.53;72.04;102785.88;5011370;28;20422;-81
2022/12/17 17:13:53;;;;;;;0.47;0.47;;;;;;;0.46;71.64;102778.56;5018608;28;20018;-80
2022/12/17 17:16:22;;;;;;;0.20;0.20;;;;;;;0.42;71.67;102781.81;5021597;28;20018;-79
2022/12/17 17:18:49;;;;;;;2.22;2.05;;;;;;;0.39;71.33;102792.09;4998418;28;20148;-79
2022/12/17 17:26:38;;;;;;;0.10;0.10;;;;;;;0.43;71.76;102788.84;5063272;28;20390;-80
2022/12/17 17:29:04;;;;;;;3.40;1.85;;;;;;;0.43;71.47;102788.84;5054761;28;20028;-80
2022/12/17 17:31:31;;;;;;;0.20;0.20;;;;;;;0.42;71.59;102795.75;5046052;28;20412;-79
2022/12/17 17:33:57;;;;;;;0.20;0.20;;;;;;;0.44;71.93;102801.06;5029043;28;20072;-78
2022/12/17 17:36:26;;;;;;;1.33;1.30;;;;;;;0.43;71.51;102801.88;5023036;28;20357;-79
2022/12/17 17:38:58;;;;;;;1.00;1.00;;;;;;;0.39;71.58;102803.41;5035841;28;20041;-80
2022/12/17 17:41:26;;;;;;;0.60;0.60;;;;;;;0.37;71.64;102810.25;5050643;28;20036;-80
2022/12/17 17:43:55;;;;;;;2.95;2.83;;;;;;;0.37;72.02;102799.81;5046063;28;20034;-81
2022/12/17 17:46:22;;;;;;;0.20;0.20;;;;;;;0.40;71.96;102806.91;5042724;28;20029;-81
2022/12/17 17:48:49;;;;;;;0.40;0.40;;;;;;;0.35;71.93;102809.28;5049020;28;20049;-82
2022/12/17 17:51:19;;;;;;;0.20;0.20;;;;;;;0.34;71.87;102814.41;5054163;28;20042;-80
2022/12/17 17:53:47;;;;;;;0.20;0.20;;;;;;;0.37;72.24;102814.59;5044457;28;21176;-81
2022/12/17 17:56:16;;;;;;;0.98;0.98;;;;;;;0.32;71.60;102807.41;5048997;28;20049;-82
2022/12/17 17:58:46;;;;;;;0.73;0.73;;;;;;;0.34;71.99;102801.38;5047689;28;20765;-79
2022/12/17 18:01:16;;;;;;;0.20;0.20;;;;;;;0.25;71.73;102804.38;5041515;28;20032;-81
2022/12/17 18:03:43;;;;;;;0.17;0.17;;;;;;;0.26;71.63;102794.06;5040821;28;20494;-81
2022/12/17 18:06:12;;;;;;;0.85;0.85;;;;;;;0.27;71.69;102798.44;5053787;28;20032;-80
2022/12/17 18:08:39;;;;;;;0.88;0.88;;;;;;;0.25;72.24;102797.47;5057543;28;20047;-80
2022/12/17 18:11:08;;;;;;;0.20;0.20;;;;;;;0.27;71.98;102802.75;5045755;28;20022;-82
2022/12/17 18:14:05;;;;;;;0.22;0.22;;;;;;;0.17;71.52;102803.97;5037957;28;20036;-80
2022/12/17 18:19:18;;;;;;;1.10;1.10;;;;;;;0.21;72.08;102798.09;5063302;28;20402;-81
2022/12/17 18:21:45;;;;;;;0.57;0.57;;;;;;;0.19;72.00;102802.34;5044754;28;20025;-77
2022/12/17 18:24:15;;;;;;;1.10;1.10;;;;;;;0.11;71.50;102806.25;5045639;28;20025;-78
2022/12/17 18:26:43;;;;;;;0.20;0.20;;;;;;;0.15;71.57;102803.00;5045026;28;20060;-80
2022/12/17 18:29:13;;;;;;;1.90;1.75;;;;;;;0.13;71.50;102810.72;5045876;28;20033;-79
2022/12/17 18:31:39;;;;;;;0.20;0.20;;;;;;;0.11;71.93;102811.44;5059826;28;20043;-79
2022/12/17 18:34:07;;;;;;;0.73;0.73;;;;;;;0.10;72.24;102810.56;5072675;28;20052;-80
2022/12/17 18:36:36;;;;;;;1.73;1.65;;;;;;;0.07;72.12;102805.16;5055942;28;20025;-80
2022/12/17 18:39:07;;;;;;;0.20;0.20;;;;;;;0.08;71.61;102800.88;5049080;28;20025;-81
2022/12/17 18:44:21;;;;;;;0.10;0.10;;;;;;;0.03;72.08;102808.44;5034210;28;20636;-80
2022/12/17 18:46:47;;;;;;;0.60;0.60;;;;;;;0.09;72.22;102816.59;5037885;28;20083;-81
2022/12/17 18:49:16;;;;;;;0.30;0.30;;;;;;;0.05;71.97;102816.31;5045068;28;20033;-82
2022/12/17 18:51:44;;;;;;;0.40;0.40;;;;;;;-0.03;71.74;102814.19;5036550;28;20382;-82
2022/12/17 18:54:17;;;;;;;0.38;0.38;;;;;;;0.07;72.10;102814.72;5031530;28;20033;-81
2022/12/17 18:56:44;;;;;;;1.48;1.45;;;;;;;0.05;72.14;102814.63;5025396;28;20030;-81
2022/12/17 18:59:13;;;;;;;1.10;1.10;;;;;;;0.10;71.70;102825.28;5029585;28;20033;-82
2022/12/17 19:01:39;;;;;;;0.68;0.68;;;;;;;0.07;71.65;102825.13;5033118;28;20033;-81
2022/12/17 19:04:08;;;;;;;0.60;0.60;;;;;;;0.06;71.95;102833.75;5026133;28;20125;-79
2022/12/17 19:06:35;;;;;;;1.33;1.33;;;;;;;0.06;71.95;102828.56;4993423;28;20025;-80
2022/12/17 19:09:04;;;;;;;0.28;0.28;;;;;;;0.03;71.50;102825.78;4977203;28;20385;-80
2022/12/17 19:11:31;;;;;;;0.20;0.20;;;;;;;0.04;71.37;102825.88;4983828;28;20041;-81
2022/12/17 19:13:57;;;;;;;0.30;0.30;;;;;;;-0.05;71.90;102828.88;4993847;28;20302;-81
2022/12/17 19:16:26;;;;;;;0.20;0.20;;;;;;;-0.03;71.78;102835.03;4993971;28;20132;-82
2022/12/17 19:18:55;;;;;;;0.20;0.20;;;;;;;-0.01;71.42;102841.25;4997657;28;20033;-78
2022/12/17 19:21:22;;;;;;;0.55;0.55;;;;;;;-0.01;71.82;102854.28;4996716;28;20235;-79
2022/12/17 19:23:53;;;;;;;0.50;0.50;;;;;;;-0.01;72.03;102845.56;4991749;28;20025;-78
2022/12/17 19:26:21;;;;;;;0.40;0.40;;;;;;;-0.03;71.57;102847.19;4993123;28;20250;-78
2022/12/17 19:28:49;;;;;;;0.13;0.13;;;;;;;-0.10;71.64;102842.44;4984622;28;20140;-81
2022/12/17 19:31:18;;;;;;;0.40;0.40;;;;;;;0.01;71.24;102843.03;4986382;28;20568;-82
2022/12/17 19:33:44;;;;;;;0.30;0.30;;;;;;;0.00;71.17;102855.19;4993574;28;20041;-82
2022/12/17 19:36:14;;;;;;;0.20;0.20;;;;;;;-0.06;71.47;102860.94;5008900;28;20030;-82
2022/12/17 19:38:40;;;;;;;0.63;0.63;;;;;;;-0.07;71.56;102859.13;5002423;28;20104;-82
2022/12/17 19:41:09;;;;;;;0.30;0.30;;;;;;;-0.05;71.62;102856.63;4990875;28;20385;-84
2022/12/17 19:43:35;;;;;;;2.92;1.08;;;;;;;-0.02;70.92;102862.91;4990454;28;20041;-81
2022/12/17 19:46:12;;;;;;;0.30;0.30;;;;;;;0.01;71.45;102867.38;4989020;28;20575;-82
2022/12/17 19:48:39;;;;;;;1.75;1.70;;;;;;;-0.05;71.17;102872.25;5009755;28;20022;-81
2022/12/17 19:51:10;;;;;;;0.20;0.20;;;;;;;-0.09;71.15;102865.06;5005222;28;20095;-82
2022/12/17 19:53:40;;;;;;;0.20;0.20;;;;;;;-0.11;70.66;102858.88;4969318;28;20118;-84
2022/12/17 19:58:55;;;;;;;0.15;0.15;;;;;;;-0.12;70.85;102876.22;5093861;27;1244066;-83
2022/12/17 20:01:25;;;;;;;1.42;1.15;;;;;;;-0.11;71.22;102867.59;5105714;28;20112;-82
2022/12/17 20:03:53;;;;;;;0.95;0.95;;;;;;;-0.11;71.28;102867.59;5087994;28;20090;-82
2022/12/17 20:06:21;;;;;;;0.10;0.10;;;;;;;-0.11;71.10;102872.81;5084541;28;20028;-81
2022/12/17 20:08:47;;;;;;;0.57;0.57;;;;;;;-0.11;70.95;102878.03;5086928;28;20139;-83
2022/12/17 20:11:46;;;;;;;0.63;0.63;;;;;;;-0.12;71.19;102877.94;5088816;28;20042;-81
2022/12/17 20:14:28;;;;;;;1.45;1.45;;;;;;;-0.09;71.00;102873.78;5092909;28;20040;-81
2022/12/17 20:16:57;;;;;;;0.20;0.20;;;;;;;-0.07;71.52;102874.78;5091677;28;20340;-80
2022/12/17 20:19:26;;;;;;;0.20;0.20;;;;;;;-0.09;71.27;102876.38;5089859;28;20125;-80
2022/12/17 20:21:54;;;;;;;0.20;0.20;;;;;;;-0.08;71.36;102870.38;5062267;28;20325;-80
2022/12/17 20:24:20;;;;;;;0.75;0.75;;;;;;;-0.11;70.72;102866.69;5084448;28;20197;-82
2022/12/17 20:26:50;;;;;;;0.15;0.15;;;;;;;-0.14;71.37;102866.53;5089925;28;20030;-81
2022/12/17 20:29:17;;;;;;;1.15;1.15;;;;;;;-0.22;70.31;102866.97;5088167;28;20247;-82
2022/12/17 20:31:46;;;;;;;1.42;0.93;;;;;;;-0.22;70.71;102868.72;5085817;28;20031;-81
2022/12/17 20:34:14;;;;;;;0.20;0.20;;;;;;;-0.28;71.35;102864.03;5078452;28;20553;-80
2022/12/17 20:36:41;;;;;;;0.17;0.17;;;;;;;-0.28;70.92;102868.34;5072902;28;20334;-82
2022/12/17 20:39:09;;;;;;;0.10;0.10;;;;;;;-0.27;70.60;102870.16;5039004;28;20036;-80
2022/12/17 20:41:35;;;;;;;0.32;0.32;;;;;;;-0.29;70.71;102874.38;5062054;28;20032;-80
2022/12/17 20:44:04;;;;;;;0.20;0.20;;;;;;;-0.24;70.86;102870.31;5082425;28;20024;-80
2022/12/17 20:46:30;;;;;;;1.55;1.17;;;;;;;-0.25;71.44;102868.50;5080525;28;20032;-80
2022/12/17 20:48:59;;;;;;;0.13;0.13;;;;;;;-0.24;70.70;102865.09;5082379;28;20102;-80
2022/12/17 20:51:27;;;;;;;0.20;0.20;;;;;;;-0.21;71.32;102874.00;5081596;28;20064;-80
2022/12/17 20:53:54;;;;;;;0.17;0.17;;;;;;;-0.21;70.96;102876.59;5084043;28;20189;-81
2022/12/17 20:56:23;;;;;;;0.35;0.35;;;;;;;-0.18;71.33;102886.31;5084053;28;20028;-83
2022/12/17 20:58:55;;;;;;;0.82;0.82;;;;;;;-0.20;71.27;102893.13;5084074;28;20059;-81
2022/12/17 21:01:23;;;;;;;0.30;0.30;;;;;;;-0.17;71.36;102888.97;5077128;28;20035;-86
2022/12/17 21:03:53;;;;;;;0.20;0.20;;;;;;;-0.18;70.62;102887.19;5078896;28;20183;-83
2022/12/17 21:06:23;;;;;;;0.45;0.45;;;;;;;-0.15;70.55;102891.66;5091450;28;20169;-82
2022/12/17 21:08:51;;;;;;;0.20;0.20;;;;;;;-0.16;71.03;102889.91;5100738;28;20085;-83
2022/12/17 21:11:19;;;;;;;0.20;0.20;;;;;;;-0.19;70.79;102884.50;5075865;28;20040;-85
2022/12/17 21:13:46;;;;;;;0.20;0.20;;;;;;;-0.12;71.04;102891.88;5065853;28;20032;-80
2022/12/17 21:16:16;;;;;;;1.40;1.30;;;;;;;-0.11;71.26;102896.28;5060915;28;20219;-80
2022/12/17 21:18:42;;;;;;;0.20;0.20;;;;;;;-0.10;70.90;102895.47;5065031;28;20345;-81
2022/12/17 21:21:13;;;;;;;0.10;0.10;;;;;;;-0.06;71.23;102901.75;5069162;28;20043;-81
2022/12/17 21:23:39;;;;;;;0.52;0.52;;;;;;;-0.07;71.01;102890.41;5048128;28;20032;-82
2022/12/17 21:28:44;;;;;;;0.77;0.77;;;;;;;-0.12;70.40;102891.88;5035520;28;20300;-82
2022/12/17 21:31:21;;;;;;;0.85;0.85;;;;;;;-0.08;70.43;102909.47;5021538;28;20097;-81
2022/12/17 21:33:49;;;;;;;0.47;0.47;;;;;;;-0.11;70.72;102917.13;5044943;28;20039;-81
2022/12/17 21:36:17;;;;;;;1.05;1.00;;;;;;;-0.13;70.40;102920.44;5046008;28;20064;-82
2022/12/17 21:38:44;;;;;;;0.20;0.20;;;;;;;-0.12;70.85;102923.13;5046137;28;20029;-83
2022/12/17 21:41:14;;;;;;;0.68;0.68;;;;;;;-0.13;70.30;102915.22;5034572;28;20075;-82
2022/12/17 21:43:41;;;;;;;0.20;0.20;;;;;;;-0.15;70.20;102922.06;5037949;28;20055;-83
2022/12/17 21:46:09;;;;;;;0.20;0.20;;;;;;;-0.19;69.99;102931.41;5034307;28;20036;-81
2022/12/17 21:48:39;;;;;;;0.13;0.13;;;;;;;-0.22;70.10;102926.03;5032858;28;20147;-82
2022/12/17 21:51:08;;;;;;;3.83;1.40;;;;;;;-0.23;70.76;102939.84;5035949;28;20029;-80
2022/12/17 21:53:35;;;;;;;0.82;0.82;;;;;;;-0.29;70.42;102935.16;5037961;28;20597;-80
2022/12/17 21:56:04;;;;;;;1.95;1.50;;;;;;;-0.31;70.26;102928.06;5034738;28;20558;-82
2022/12/17 21:58:30;;;;;;;1.05;1.05;;;;;;;-0.28;70.19;102936.97;5026469;28;20275;-80
2022/12/17 22:01:24;;;;;;;0.20;0.20;;;;;;;-0.24;69.90;102944.16;5013375;28;20625;-81
2022/12/17 22:03:52;;;;;;;0.20;0.20;;;;;;;-0.27;70.44;102948.31;4986321;28;20172;-82
2022/12/17 22:06:22;;;;;;;3.25;3.05;;;;;;;-0.23;70.40;102950.28;5008015;28;20617;-82
2022/12/17 22:08:49;;;;;;;0.32;0.32;;;;;;;-0.18;70.96;102948.84;5013181;28;20609;-80
2022/12/17 22:11:22;;;;;;;0.30;0.30;;;;;;;-0.14;70.70;102956.00;5026131;28;20024;-81
2022/12/17 22:14:20;;;;;;;0.63;0.63;;;;;;;-0.20;70.10;102953.03;4967017;28;20724;-81
2022/12/17 22:19:18;;;;;;;0.65;0.65;;;;;;;-0.20;70.12;102953.03;5074013;27;20558;-80
2022/12/17 22:21:45;;;;;;;6.82;3.97;;;;;;;-0.23;70.16;102945.06;5079303;28;20274;-80
2022/12/17 22:24:14;;;;;;;0.22;0.22;;;;;;;-0.24;69.92;102932.84;5085959;28;20270;-81
2022/12/17 22:26:41;;;;;;;0.20;0.20;;;;;;;-0.31;70.95;102942.03;5054394;28;20043;-82
2022/12/17 22:29:09;;;;;;;0.20;0.20;;;;;;;-0.29;70.88;102945.59;5065290;28;20032;-81
2022/12/17 22:34:21;;;;;;;0.15;0.15;;;;;;;-0.28;70.70;102947.41;5061051;28;20119;-81
2022/12/17 22:36:47;;;;;;;0.20;0.20;;;;;;;-0.23;70.92;102940.75;5057762;28;20566;-81
2022/12/17 22:39:15;;;;;;;1.48;1.17;;;;;;;-0.21;70.57;102938.25;5055654;28;20043;-79
2022/12/17 22:44:27;;;;;;;2.90;1.52;;;;;;;-0.20;70.98;102940.00;5040306;28;20200;-81
2022/12/17 22:46:53;;;;;;;0.70;0.70;;;;;;;-0.16;70.80;102947.22;5033542;28;20840;-81
2022/12/17 22:49:19;;;;;;;0.20;0.20;;;;;;;-0.16;70.80;102947.22;5033809;28;20140;-81
2022/12/17 22:51:45;;;;;;;0.30;0.30;;;;;;;-0.17;70.59;102940.22;5032666;28;20406;-82
2022/12/17 22:54:13;;;;;;;0.20;0.20;;;;;;;-0.15;71.21;102935.97;5033896;28;20310;-81
2022/12/17 22:56:42;;;;;;;0.10;0.10;;;;;;;-0.10;71.09;102939.75;5053285;28;20029;-82
2022/12/17 22:59:14;;;;;;;0.20;0.20;;;;;;;-0.14;70.48;102935.16;5055195;28;20036;-80
2022/12/17 23:01:40;;;;;;;0.30;0.30;;;;;;;-0.18;70.28;102934.09;5050350;28;20334;-83
2022/12/17 23:04:06;;;;;;;0.20;0.20;;;;;;;-0.20;70.24;102940.94;5026965;28;20261;-82
2022/12/17 23:06:32;;;;;;;0.20;0.20;;;;;;;-0.21;70.38;102939.13;5030043;28;20420;-82
2022/12/17 23:08:59;;;;;;;0.45;0.45;;;;;;;-0.25;70.69;102933.66;5052515;28;20055;-81
2022/12/17 23:11:30;;;;;;;0.22;0.22;;;;;;;-0.22;70.72;102939.06;5016906;28;20020;-81
2022/12/17 23:13:58;;;;;;;0.30;0.30;;;;;;;-0.27;71.07;102949.19;5000498;28;20267;-83
2022/12/17 23:16:33;;;;;;;0.20;0.20;;;;;;;-0.19;70.68;102941.81;4992618;28;20242;-82
2022/12/17 23:19:01;;;;;;;0.57;0.57;;;;;;;-0.18;71.04;102938.41;5014116;28;20025;-80
2022/12/17 23:21:27;;;;;;;1.77;1.67;;;;;;;-0.13;71.14;102942.19;5084304;28;20039;-82
2022/12/17 23:23:55;;;;;;;5.97;2.67;;;;;;;-0.19;70.61;102941.81;5082948;28;20028;-82
2022/12/17 23:26:27;;;;;;;2.35;1.23;;;;;;;-0.19;70.56;102934.00;5086298;28;20032;-80
2022/12/17 23:28:57;;;;;;;0.30;0.30;;;;;;;-0.20;70.37;102938.31;5082847;28;20024;-80
2022/12/17 23:31:24;;;;;;;0.20;0.20;;;;;;;-0.26;70.46;102932.75;5078353;28;20039;-80
2022/12/17 23:33:50;;;;;;;2.05;1.95;;;;;;;-0.26;70.58;102929.22;5058591;28;20388;-82
2022/12/17 23:36:19;;;;;;;0.20;0.20;;;;;;;-0.28;70.52;102936.97;5089580;28;20088;-82
2022/12/17 23:38:46;;;;;;;2.08;0.65;;;;;;;-0.29;70.42;102935.16;5097280;28;20044;-82
2022/12/17 23:41:15;;;;;;;1.00;1.00;;;;;;;-0.29;70.28;102942.97;5082809;28;20060;-82
2022/12/17 23:43:41;;;;;;;0.20;0.20;;;;;;;-0.27;71.02;102932.69;5081362;28;20047;-82
2022/12/17 23:46:08;;;;;;;0.85;0.85;;;;;;;-0.28;70.46;102930.88;5081424;28;20025;-82
2022/12/17 23:48:37;;;;;;;0.30;0.30;;;;;;;-0.25;70.74;102924.13;5077474;28;20029;-81
2022/12/17 23:51:04;;;;;;;0.10;0.10;;;;;;;-0.29;71.03;102926.47;5080043;28;20035;-81
2022/12/17 23:53:32;;;;;;;0.47;0.47;;;;;;;-0.29;70.68;102918.66;5080719;28;20039;-81
2022/12/17 23:58:44;;;;;;;0.20;0.20;;;;;;;-0.27;70.91;102906.63;5118672;27;20410;-79
